sensor_id;sensor_type;location;lat;lon;timestamp;P1;durP1;ratioP1;P2;durP2;ratioP2
26407;SDS011;14583;43.604;1.364;2022-12-04T00:01:35;58.95;;;38.67;;
26407;SDS011;14583;43.604;1.364;2022-12-04T00:04:01;64.57;;;40.15;;
26407;SDS011;14583;43.604;1.364;2022-12-04T00:06:27;64.97;;;40.25;;
26407;SDS011;14583;43.604;1.364;2022-12-04T00:08:53;62.20;;;39.38;;
26407;SDS011;14583;43.604;1.364;2022-12-04T00:11:20;60.97;;;39.83;;
26407;SDS011;14583;43.604;1.364;2022-12-04T00:13:48;62.15;;;40.25;;
26407;SDS011;14583;43.604;1.364;2022-12-04T00:16:15;70.53;;;45.28;;
26407;SDS011;14583;43.604;1.364;2022-12-04T00:18:44;60.83;;;40.22;;
26407;SDS011;14583;43.604;1.364;2022-12-04T00:21:11;55.38;;;37.05;;
26407;SDS011;14583;43.604;1.364;2022-12-04T00:23:39;52.42;;;36.05;;
26407;SDS011;14583;43.604;1.364;2022-12-04T00:26:07;54.95;;;36.80;;
26407;SDS011;14583;43.604;1.364;2022-12-04T00:28:35;60.55;;;37.60;;
26407;SDS011;14583;43.604;1.364;2022-12-04T00:31:05;54.35;;;36.88;;
26407;SDS011;14583;43.604;1.364;2022-12-04T00:33:33;58.42;;;37.05;;
26407;SDS011;14583;43.604;1.364;2022-12-04T00:36:00;55.17;;;35.45;;
26407;SDS011;14583;43.604;1.364;2022-12-04T00:38:28;60.90;;;37.15;;
26407;SDS011;14583;43.604;1.364;2022-12-04T00:40:54;54.13;;;35.13;;
26407;SDS011;14583;43.604;1.364;2022-12-04T00:43:20;56.30;;;37.78;;
26407;SDS011;14583;43.604;1.364;2022-12-04T00:45:46;54.30;;;34.92;;
26407;SDS011;14583;43.604;1.364;2022-12-04T00:48:12;51.35;;;34.92;;
26407;SDS011;14583;43.604;1.364;2022-12-04T00:50:38;50.75;;;34.90;;
26407;SDS011;14583;43.604;1.364;2022-12-04T00:53:04;51.00;;;34.47;;
26407;SDS011;14583;43.604;1.364;2022-12-04T00:55:29;53.35;;;35.95;;
26407;SDS011;14583;43.604;1.364;2022-12-04T00:57:55;56.03;;;35.17;;
26407;SDS011;14583;43.604;1.364;2022-12-04T01:00:21;51.30;;;34.72;;
26407;SDS011;14583;43.604;1.364;2022-12-04T01:02:47;51.33;;;34.10;;
26407;SDS011;14583;43.604;1.364;2022-12-04T01:05:12;49.95;;;33.58;;
26407;SDS011;14583;43.604;1.364;2022-12-04T01:07:38;52.17;;;35.50;;
26407;SDS011;14583;43.604;1.364;2022-12-04T01:10:05;50.70;;;34.45;;
26407;SDS011;14583;43.604;1.364;2022-12-04T01:12:32;48.63;;;33.35;;
26407;SDS011;14583;43.604;1.364;2022-12-04T01:14:58;51.55;;;32.70;;
26407;SDS011;14583;43.604;1.364;2022-12-04T01:17:24;52.20;;;33.30;;
26407;SDS011;14583;43.604;1.364;2022-12-04T01:19:49;51.35;;;33.25;;
26407;SDS011;14583;43.604;1.364;2022-12-04T01:22:15;49.22;;;31.67;;
26407;SDS011;14583;43.604;1.364;2022-12-04T01:24:40;53.15;;;33.47;;
26407;SDS011;14583;43.604;1.364;2022-12-04T01:27:06;50.72;;;33.22;;
26407;SDS011;14583;43.604;1.364;2022-12-04T01:29:32;46.15;;;31.42;;
26407;SDS011;14583;43.604;1.364;2022-12-04T01:31:58;47.65;;;30.98;;
26407;SDS011;14583;43.604;1.364;2022-12-04T01:34:23;48.33;;;31.95;;
26407;SDS011;14583;43.604;1.364;2022-12-04T01:36:49;52.13;;;31.95;;
26407;SDS011;14583;43.604;1.364;2022-12-04T01:39:15;50.60;;;31.67;;
26407;SDS011;14583;43.604;1.364;2022-12-04T01:41:41;53.13;;;32.33;;
26407;SDS011;14583;43.604;1.364;2022-12-04T01:46:32;49.60;;;31.13;;
26407;SDS011;14583;43.604;1.364;2022-12-04T01:48:58;47.13;;;31.50;;
26407;SDS011;14583;43.604;1.364;2022-12-04T01:51:25;46.20;;;31.30;;
26407;SDS011;14583;43.604;1.364;2022-12-04T01:54:11;48.88;;;32.00;;
26407;SDS011;14583;43.604;1.364;2022-12-04T01:57:02;50.33;;;32.83;;
26407;SDS011;14583;43.604;1.364;2022-12-04T01:59:33;46.22;;;30.92;;
26407;SDS011;14583;43.604;1.364;2022-12-04T02:02:03;45.53;;;30.77;;
26407;SDS011;14583;43.604;1.364;2022-12-04T02:04:34;49.63;;;31.65;;
26407;SDS011;14583;43.604;1.364;2022-12-04T02:07:02;49.83;;;31.20;;
26407;SDS011;14583;43.604;1.364;2022-12-04T02:09:28;46.95;;;30.77;;
26407;SDS011;14583;43.604;1.364;2022-12-04T02:17:26;49.95;;;32.13;;
26407;SDS011;14583;43.604;1.364;2022-12-04T02:20:41;46.97;;;31.40;;
26407;SDS011;14583;43.604;1.364;2022-12-04T02:25:43;45.80;;;32.17;;
26407;SDS011;14583;43.604;1.364;2022-12-04T02:28:14;52.50;;;32.17;;
26407;SDS011;14583;43.604;1.364;2022-12-04T02:30:47;47.55;;;31.40;;
26407;SDS011;14583;43.604;1.364;2022-12-04T02:33:18;46.05;;;30.15;;
26407;SDS011;14583;43.604;1.364;2022-12-04T02:36:01;46.35;;;32.05;;
26407;SDS011;14583;43.604;1.364;2022-12-04T02:38:39;45.33;;;30.38;;
26407;SDS011;14583;43.604;1.364;2022-12-04T02:43:42;47.03;;;30.48;;
26407;SDS011;14583;43.604;1.364;2022-12-04T02:46:14;42.90;;;29.17;;
26407;SDS011;14583;43.604;1.364;2022-12-04T02:49:01;47.38;;;29.30;;
26407;SDS011;14583;43.604;1.364;2022-12-04T02:51:31;44.20;;;29.52;;
26407;SDS011;14583;43.604;1.364;2022-12-04T02:54:03;45.77;;;29.90;;
26407;SDS011;14583;43.604;1.364;2022-12-04T02:56:35;45.93;;;31.23;;
26407;SDS011;14583;43.604;1.364;2022-12-04T02:59:17;42.63;;;28.88;;
26407;SDS011;14583;43.604;1.364;2022-12-04T03:01:48;42.53;;;28.38;;
26407;SDS011;14583;43.604;1.364;2022-12-04T03:04:24;45.38;;;29.73;;
26407;SDS011;14583;43.604;1.364;2022-12-04T03:06:59;47.85;;;31.02;;
26407;SDS011;14583;43.604;1.364;2022-12-04T03:09:34;45.03;;;29.67;;
26407;SDS011;14583;43.604;1.364;2022-12-04T03:12:50;49.05;;;30.63;;
26407;SDS011;14583;43.604;1.364;2022-12-04T03:15:02;47.53;;;29.60;;
26407;SDS011;14583;43.604;1.364;2022-12-04T03:17:36;46.72;;;29.95;;
26407;SDS011;14583;43.604;1.364;2022-12-04T03:20:07;43.88;;;28.50;;
26407;SDS011;14583;43.604;1.364;2022-12-04T03:22:38;47.33;;;29.77;;
26407;SDS011;14583;43.604;1.364;2022-12-04T03:25:07;48.35;;;31.48;;
26407;SDS011;14583;43.604;1.364;2022-12-04T03:27:39;44.42;;;28.77;;
26407;SDS011;14583;43.604;1.364;2022-12-04T03:30:19;45.97;;;30.23;;
26407;SDS011;14583;43.604;1.364;2022-12-04T03:43:44;43.70;;;28.90;;
26407;SDS011;14583;43.604;1.364;2022-12-04T03:46:34;45.47;;;29.15;;
26407;SDS011;14583;43.604;1.364;2022-12-04T03:49:16;46.13;;;30.27;;
26407;SDS011;14583;43.604;1.364;2022-12-04T03:51:50;44.83;;;30.45;;
26407;SDS011;14583;43.604;1.364;2022-12-04T03:54:28;44.65;;;29.33;;
26407;SDS011;14583;43.604;1.364;2022-12-04T03:57:13;46.80;;;30.75;;
26407;SDS011;14583;43.604;1.364;2022-12-04T03:59:44;41.50;;;27.65;;
26407;SDS011;14583;43.604;1.364;2022-12-04T04:02:19;46.42;;;30.35;;
26407;SDS011;14583;43.604;1.364;2022-12-04T04:04:49;44.20;;;30.13;;
26407;SDS011;14583;43.604;1.364;2022-12-04T04:07:21;45.63;;;29.70;;
26407;SDS011;14583;43.604;1.364;2022-12-04T04:09:52;46.25;;;30.30;;
26407;SDS011;14583;43.604;1.364;2022-12-04T04:12:23;48.13;;;31.07;;
26407;SDS011;14583;43.604;1.364;2022-12-04T04:15:00;41.60;;;28.40;;
26407;SDS011;14583;43.604;1.364;2022-12-04T04:17:51;46.20;;;28.73;;
26407;SDS011;14583;43.604;1.364;2022-12-04T04:20:38;46.15;;;29.48;;
26407;SDS011;14583;43.604;1.364;2022-12-04T04:23:27;46.72;;;28.33;;
26407;SDS011;14583;43.604;1.364;2022-12-04T04:26:15;44.38;;;29.17;;
26407;SDS011;14583;43.604;1.364;2022-12-04T04:28:43;45.05;;;27.60;;
26407;SDS011;14583;43.604;1.364;2022-12-04T04:31:33;44.90;;;28.23;;
26407;SDS011;14583;43.604;1.364;2022-12-04T04:34:18;41.58;;;27.75;;
26407;SDS011;14583;43.604;1.364;2022-12-04T04:39:37;41.13;;;28.10;;
26407;SDS011;14583;43.604;1.364;2022-12-04T04:45:16;44.53;;;27.45;;
26407;SDS011;14583;43.604;1.364;2022-12-04T04:50:18;39.40;;;27.15;;
26407;SDS011;14583;43.604;1.364;2022-12-04T04:52:48;41.90;;;27.33;;
26407;SDS011;14583;43.604;1.364;2022-12-04T04:55:17;42.42;;;28.42;;
26407;SDS011;14583;43.604;1.364;2022-12-04T04:57:45;42.05;;;28.52;;
26407;SDS011;14583;43.604;1.364;2022-12-04T05:00:11;45.38;;;29.15;;
26407;SDS011;14583;43.604;1.364;2022-12-04T05:02:39;45.67;;;27.02;;
26407;SDS011;14583;43.604;1.364;2022-12-04T05:05:05;42.95;;;28.20;;
26407;SDS011;14583;43.604;1.364;2022-12-04T05:07:31;39.90;;;25.98;;
26407;SDS011;14583;43.604;1.364;2022-12-04T05:09:57;48.45;;;28.15;;
26407;SDS011;14583;43.604;1.364;2022-12-04T05:12:22;48.80;;;28.67;;
26407;SDS011;14583;43.604;1.364;2022-12-04T05:14:48;40.83;;;27.42;;
26407;SDS011;14583;43.604;1.364;2022-12-04T05:17:14;42.03;;;27.85;;
26407;SDS011;14583;43.604;1.364;2022-12-04T05:19:39;41.80;;;28.13;;
26407;SDS011;14583;43.604;1.364;2022-12-04T05:22:20;41.78;;;28.17;;
26407;SDS011;14583;43.604;1.364;2022-12-04T05:25:04;42.53;;;26.90;;
26407;SDS011;14583;43.604;1.364;2022-12-04T05:27:31;40.65;;;27.42;;
26407;SDS011;14583;43.604;1.364;2022-12-04T05:29:57;45.88;;;28.40;;
26407;SDS011;14583;43.604;1.364;2022-12-04T05:32:23;43.60;;;27.13;;
26407;SDS011;14583;43.604;1.364;2022-12-04T05:34:51;44.00;;;27.88;;
26407;SDS011;14583;43.604;1.364;2022-12-04T05:37:17;43.60;;;28.52;;
26407;SDS011;14583;43.604;1.364;2022-12-04T05:39:43;43.45;;;28.23;;
26407;SDS011;14583;43.604;1.364;2022-12-04T05:42:10;44.58;;;27.95;;
26407;SDS011;14583;43.604;1.364;2022-12-04T05:44:36;45.50;;;27.73;;
26407;SDS011;14583;43.604;1.364;2022-12-04T05:47:01;44.65;;;28.63;;
26407;SDS011;14583;43.604;1.364;2022-12-04T05:49:28;42.97;;;27.25;;
26407;SDS011;14583;43.604;1.364;2022-12-04T05:51:54;39.90;;;26.42;;
26407;SDS011;14583;43.604;1.364;2022-12-04T05:54:20;38.53;;;26.88;;
26407;SDS011;14583;43.604;1.364;2022-12-04T05:56:46;46.67;;;27.98;;
26407;SDS011;14583;43.604;1.364;2022-12-04T05:59:12;42.60;;;27.48;;
26407;SDS011;14583;43.604;1.364;2022-12-04T06:01:42;38.92;;;25.98;;
26407;SDS011;14583;43.604;1.364;2022-12-04T06:04:08;42.10;;;27.25;;
26407;SDS011;14583;43.604;1.364;2022-12-04T06:06:34;38.70;;;27.27;;
26407;SDS011;14583;43.604;1.364;2022-12-04T06:09:00;37.05;;;25.60;;
26407;SDS011;14583;43.604;1.364;2022-12-04T06:11:27;39.63;;;26.67;;
26407;SDS011;14583;43.604;1.364;2022-12-04T06:13:57;45.83;;;26.83;;
26407;SDS011;14583;43.604;1.364;2022-12-04T06:16:25;39.97;;;25.80;;
26407;SDS011;14583;43.604;1.364;2022-12-04T06:18:55;40.30;;;26.90;;
26407;SDS011;14583;43.604;1.364;2022-12-04T06:21:26;40.28;;;25.02;;
26407;SDS011;14583;43.604;1.364;2022-12-04T06:23:54;37.60;;;25.65;;
26407;SDS011;14583;43.604;1.364;2022-12-04T06:26:20;36.72;;;24.27;;
26407;SDS011;14583;43.604;1.364;2022-12-04T06:28:46;37.40;;;26.45;;
26407;SDS011;14583;43.604;1.364;2022-12-04T06:31:13;38.72;;;24.75;;
26407;SDS011;14583;43.604;1.364;2022-12-04T06:33:40;37.33;;;25.15;;
26407;SDS011;14583;43.604;1.364;2022-12-04T06:36:10;34.88;;;24.45;;
26407;SDS011;14583;43.604;1.364;2022-12-04T06:38:38;39.95;;;23.88;;
26407;SDS011;14583;43.604;1.364;2022-12-04T06:41:07;37.83;;;24.73;;
26407;SDS011;14583;43.604;1.364;2022-12-04T06:43:35;38.72;;;24.45;;
26407;SDS011;14583;43.604;1.364;2022-12-04T06:46:02;38.58;;;25.08;;
26407;SDS011;14583;43.604;1.364;2022-12-04T06:48:30;33.65;;;24.02;;
26407;SDS011;14583;43.604;1.364;2022-12-04T06:51:00;35.05;;;22.90;;
26407;SDS011;14583;43.604;1.364;2022-12-04T06:53:37;31.20;;;22.92;;
26407;SDS011;14583;43.604;1.364;2022-12-04T06:56:04;34.40;;;23.60;;
26407;SDS011;14583;43.604;1.364;2022-12-04T06:58:32;35.60;;;23.33;;
26407;SDS011;14583;43.604;1.364;2022-12-04T07:00:58;33.90;;;23.80;;
26407;SDS011;14583;43.604;1.364;2022-12-04T07:03:30;34.38;;;23.80;;
26407;SDS011;14583;43.604;1.364;2022-12-04T07:05:55;33.75;;;23.92;;
26407;SDS011;14583;43.604;1.364;2022-12-04T07:08:21;35.75;;;23.67;;
26407;SDS011;14583;43.604;1.364;2022-12-04T07:10:46;33.00;;;23.30;;
26407;SDS011;14583;43.604;1.364;2022-12-04T07:13:12;35.63;;;24.10;;
26407;SDS011;14583;43.604;1.364;2022-12-04T07:15:38;35.40;;;24.40;;
26407;SDS011;14583;43.604;1.364;2022-12-04T07:18:03;35.53;;;23.20;;
26407;SDS011;14583;43.604;1.364;2022-12-04T07:20:29;33.08;;;22.67;;
26407;SDS011;14583;43.604;1.364;2022-12-04T07:22:55;36.00;;;23.40;;
26407;SDS011;14583;43.604;1.364;2022-12-04T07:25:21;36.10;;;24.17;;
26407;SDS011;14583;43.604;1.364;2022-12-04T07:27:47;38.50;;;24.45;;
26407;SDS011;14583;43.604;1.364;2022-12-04T07:30:12;39.03;;;24.70;;
26407;SDS011;14583;43.604;1.364;2022-12-04T07:32:38;36.20;;;23.85;;
26407;SDS011;14583;43.604;1.364;2022-12-04T07:35:04;32.60;;;22.77;;
26407;SDS011;14583;43.604;1.364;2022-12-04T07:37:30;33.85;;;23.80;;
26407;SDS011;14583;43.604;1.364;2022-12-04T07:39:56;34.83;;;23.65;;
26407;SDS011;14583;43.604;1.364;2022-12-04T07:42:22;34.75;;;24.25;;
26407;SDS011;14583;43.604;1.364;2022-12-04T07:44:47;37.90;;;25.52;;
26407;SDS011;14583;43.604;1.364;2022-12-04T07:47:13;32.88;;;23.40;;
26407;SDS011;14583;43.604;1.364;2022-12-04T07:49:39;36.13;;;24.20;;
26407;SDS011;14583;43.604;1.364;2022-12-04T07:52:05;35.13;;;24.55;;
26407;SDS011;14583;43.604;1.364;2022-12-04T07:54:30;35.00;;;24.33;;
26407;SDS011;14583;43.604;1.364;2022-12-04T07:56:56;30.80;;;21.83;;
26407;SDS011;14583;43.604;1.364;2022-12-04T07:59:22;34.85;;;23.88;;
26407;SDS011;14583;43.604;1.364;2022-12-04T08:01:48;31.48;;;22.38;;
26407;SDS011;14583;43.604;1.364;2022-12-04T08:04:13;35.80;;;22.95;;
26407;SDS011;14583;43.604;1.364;2022-12-04T08:06:39;30.10;;;22.73;;
26407;SDS011;14583;43.604;1.364;2022-12-04T08:09:05;32.85;;;22.83;;
26407;SDS011;14583;43.604;1.364;2022-12-04T08:11:31;33.38;;;23.92;;
26407;SDS011;14583;43.604;1.364;2022-12-04T08:14:01;32.35;;;22.42;;
26407;SDS011;14583;43.604;1.364;2022-12-04T08:16:29;35.30;;;23.75;;
26407;SDS011;14583;43.604;1.364;2022-12-04T08:18:57;32.60;;;22.40;;
26407;SDS011;14583;43.604;1.364;2022-12-04T08:21:25;33.13;;;23.48;;
26407;SDS011;14583;43.604;1.364;2022-12-04T08:23:52;32.42;;;23.35;;
26407;SDS011;14583;43.604;1.364;2022-12-04T08:26:20;33.45;;;23.45;;
26407;SDS011;14583;43.604;1.364;2022-12-04T08:28:47;30.15;;;22.20;;
26407;SDS011;14583;43.604;1.364;2022-12-04T08:31:17;37.15;;;25.83;;
26407;SDS011;14583;43.604;1.364;2022-12-04T08:33:45;40.63;;;29.55;;
26407;SDS011;14583;43.604;1.364;2022-12-04T08:36:13;40.88;;;28.90;;
26407;SDS011;14583;43.604;1.364;2022-12-04T08:38:40;43.70;;;30.05;;
26407;SDS011;14583;43.604;1.364;2022-12-04T08:41:07;37.83;;;28.33;;
26407;SDS011;14583;43.604;1.364;2022-12-04T08:43:35;39.75;;;27.45;;
26407;SDS011;14583;43.604;1.364;2022-12-04T08:46:01;41.42;;;28.00;;
26407;SDS011;14583;43.604;1.364;2022-12-04T08:48:29;38.28;;;27.45;;
26407;SDS011;14583;43.604;1.364;2022-12-04T08:50:54;41.95;;;27.02;;
26407;SDS011;14583;43.604;1.364;2022-12-04T08:53:21;37.60;;;26.20;;
26407;SDS011;14583;43.604;1.364;2022-12-04T08:55:47;35.47;;;24.10;;
26407;SDS011;14583;43.604;1.364;2022-12-04T08:58:13;38.17;;;24.75;;
26407;SDS011;14583;43.604;1.364;2022-12-04T09:00:39;38.47;;;25.17;;
26407;SDS011;14583;43.604;1.364;2022-12-04T09:03:05;39.53;;;26.52;;
26407;SDS011;14583;43.604;1.364;2022-12-04T09:05:30;44.70;;;26.88;;
26407;SDS011;14583;43.604;1.364;2022-12-04T09:07:56;36.60;;;26.13;;
26407;SDS011;14583;43.604;1.364;2022-12-04T09:10:22;39.08;;;27.40;;
26407;SDS011;14583;43.604;1.364;2022-12-04T09:12:48;39.95;;;27.50;;
26407;SDS011;14583;43.604;1.364;2022-12-04T09:15:14;38.08;;;27.70;;
26407;SDS011;14583;43.604;1.364;2022-12-04T09:17:39;37.85;;;26.98;;
26407;SDS011;14583;43.604;1.364;2022-12-04T09:20:05;37.05;;;26.55;;
26407;SDS011;14583;43.604;1.364;2022-12-04T09:22:32;38.05;;;24.80;;
26407;SDS011;14583;43.604;1.364;2022-12-04T09:24:59;35.42;;;25.33;;
26407;SDS011;14583;43.604;1.364;2022-12-04T09:27:25;36.13;;;25.42;;
26407;SDS011;14583;43.604;1.364;2022-12-04T09:29:51;37.45;;;24.52;;
26407;SDS011;14583;43.604;1.364;2022-12-04T09:32:16;35.97;;;25.58;;
26407;SDS011;14583;43.604;1.364;2022-12-04T09:34:42;43.83;;;30.17;;
26407;SDS011;14583;43.604;1.364;2022-12-04T09:37:08;46.17;;;32.70;;
26407;SDS011;14583;43.604;1.364;2022-12-04T09:39:33;45.92;;;31.27;;
26407;SDS011;14583;43.604;1.364;2022-12-04T09:44:43;43.30;;;29.38;;
26407;SDS011;14583;43.604;1.364;2022-12-04T09:47:37;39.90;;;26.00;;
26407;SDS011;14583;43.604;1.364;2022-12-04T09:50:15;35.30;;;25.98;;
26407;SDS011;14583;43.604;1.364;2022-12-04T09:52:53;41.53;;;27.40;;
26407;SDS011;14583;43.604;1.364;2022-12-04T09:57:50;41.78;;;26.88;;
26407;SDS011;14583;43.604;1.364;2022-12-04T10:00:18;36.30;;;24.75;;
26407;SDS011;14583;43.604;1.364;2022-12-04T10:02:49;36.55;;;25.65;;
26407;SDS011;14583;43.604;1.364;2022-12-04T10:05:32;38.33;;;24.73;;
26407;SDS011;14583;43.604;1.364;2022-12-04T10:08:20;33.63;;;24.13;;
26407;SDS011;14583;43.604;1.364;2022-12-04T10:11:13;35.20;;;25.00;;
26407;SDS011;14583;43.604;1.364;2022-12-04T10:13:51;34.30;;;24.30;;
26407;SDS011;14583;43.604;1.364;2022-12-04T10:22:48;37.03;;;24.73;;
26407;SDS011;14583;43.604;1.364;2022-12-04T10:24:56;34.30;;;24.42;;
26407;SDS011;14583;43.604;1.364;2022-12-04T10:30:19;36.40;;;25.30;;
26407;SDS011;14583;43.604;1.364;2022-12-04T10:32:46;38.38;;;25.13;;
26407;SDS011;14583;43.604;1.364;2022-12-04T10:35:21;36.78;;;24.45;;
26407;SDS011;14583;43.604;1.364;2022-12-04T10:37:59;35.75;;;24.33;;
26407;SDS011;14583;43.604;1.364;2022-12-04T10:40:37;36.80;;;25.70;;
26407;SDS011;14583;43.604;1.364;2022-12-04T10:43:15;37.85;;;25.77;;
26407;SDS011;14583;43.604;1.364;2022-12-04T10:46:01;35.35;;;25.08;;
26407;SDS011;14583;43.604;1.364;2022-12-04T10:48:30;41.60;;;27.50;;
26407;SDS011;14583;43.604;1.364;2022-12-04T10:50:59;37.33;;;25.90;;
26407;SDS011;14583;43.604;1.364;2022-12-04T10:53:28;36.85;;;26.98;;
26407;SDS011;14583;43.604;1.364;2022-12-04T10:56:08;37.33;;;27.27;;
26407;SDS011;14583;43.604;1.364;2022-12-04T10:58:39;37.15;;;26.05;;
26407;SDS011;14583;43.604;1.364;2022-12-04T11:01:07;37.40;;;26.73;;
26407;SDS011;14583;43.604;1.364;2022-12-04T11:03:36;40.67;;;26.00;;
26407;SDS011;14583;43.604;1.364;2022-12-04T11:06:04;37.63;;;25.42;;
26407;SDS011;14583;43.604;1.364;2022-12-04T11:08:36;35.97;;;25.27;;
26407;SDS011;14583;43.604;1.364;2022-12-04T11:11:12;38.17;;;26.73;;
26407;SDS011;14583;43.604;1.364;2022-12-04T11:13:40;39.97;;;28.55;;
26407;SDS011;14583;43.604;1.364;2022-12-04T11:16:06;39.33;;;27.13;;
26407;SDS011;14583;43.604;1.364;2022-12-04T11:18:53;39.80;;;26.85;;
26407;SDS011;14583;43.604;1.364;2022-12-04T11:21:23;36.05;;;26.38;;
26407;SDS011;14583;43.604;1.364;2022-12-04T11:23:52;35.88;;;26.20;;
26407;SDS011;14583;43.604;1.364;2022-12-04T11:26:36;40.03;;;27.25;;
26407;SDS011;14583;43.604;1.364;2022-12-04T11:29:06;37.25;;;26.35;;
26407;SDS011;14583;43.604;1.364;2022-12-04T11:31:50;38.75;;;26.13;;
26407;SDS011;14583;43.604;1.364;2022-12-04T11:34:37;35.97;;;25.85;;
26407;SDS011;14583;43.604;1.364;2022-12-04T11:37:41;37.70;;;27.27;;
26407;SDS011;14583;43.604;1.364;2022-12-04T11:40:04;33.92;;;24.35;;
26407;SDS011;14583;43.604;1.364;2022-12-04T11:42:41;33.55;;;24.33;;
26407;SDS011;14583;43.604;1.364;2022-12-04T11:45:28;38.08;;;27.08;;
26407;SDS011;14583;43.604;1.364;2022-12-04T11:48:13;33.53;;;24.63;;
26407;SDS011;14583;43.604;1.364;2022-12-04T11:50:52;31.05;;;23.17;;
26407;SDS011;14583;43.604;1.364;2022-12-04T12:25:13;33.92;;;23.70;;
26407;SDS011;14583;43.604;1.364;2022-12-04T12:28:18;33.53;;;23.25;;
26407;SDS011;14583;43.604;1.364;2022-12-04T12:33:55;35.13;;;23.90;;
26407;SDS011;14583;43.604;1.364;2022-12-04T12:36:42;33.03;;;24.25;;
26407;SDS011;14583;43.604;1.364;2022-12-04T12:41:53;34.30;;;22.02;;
26407;SDS011;14583;43.604;1.364;2022-12-04T12:44:38;33.88;;;23.10;;
26407;SDS011;14583;43.604;1.364;2022-12-04T12:47:27;29.90;;;21.63;;
26407;SDS011;14583;43.604;1.364;2022-12-04T12:53:17;28.97;;;21.27;;
26407;SDS011;14583;43.604;1.364;2022-12-04T12:55:48;28.35;;;20.20;;
26407;SDS011;14583;43.604;1.364;2022-12-04T13:06:49;29.48;;;20.75;;
26407;SDS011;14583;43.604;1.364;2022-12-04T13:12:02;27.25;;;19.70;;
26407;SDS011;14583;43.604;1.364;2022-12-04T13:14:34;31.02;;;21.75;;
26407;SDS011;14583;43.604;1.364;2022-12-04T13:17:02;30.42;;;21.40;;
26407;SDS011;14583;43.604;1.364;2022-12-04T13:24:52;25.67;;;19.65;;
26407;SDS011;14583;43.604;1.364;2022-12-04T13:30:04;26.17;;;19.67;;
26407;SDS011;14583;43.604;1.364;2022-12-04T13:40:56;21.85;;;16.40;;
26407;SDS011;14583;43.604;1.364;2022-12-04T13:46:06;18.75;;;13.15;;
26407;SDS011;14583;43.604;1.364;2022-12-04T13:48:53;21.48;;;13.95;;
26407;SDS011;14583;43.604;1.364;2022-12-04T13:54:18;20.73;;;13.57;;
26407;SDS011;14583;43.604;1.364;2022-12-04T13:56:53;19.73;;;13.85;;
26407;SDS011;14583;43.604;1.364;2022-12-04T14:01:56;21.15;;;14.85;;
26407;SDS011;14583;43.604;1.364;2022-12-04T14:04:51;24.25;;;16.20;;
26407;SDS011;14583;43.604;1.364;2022-12-04T14:07:29;19.70;;;15.23;;
26407;SDS011;14583;43.604;1.364;2022-12-04T14:09:56;21.30;;;14.73;;
26407;SDS011;14583;43.604;1.364;2022-12-04T14:12:30;18.60;;;13.90;;
26407;SDS011;14583;43.604;1.364;2022-12-04T14:15:00;18.67;;;13.30;;
26407;SDS011;14583;43.604;1.364;2022-12-04T14:17:33;17.98;;;12.77;;
26407;SDS011;14583;43.604;1.364;2022-12-04T14:20:02;20.30;;;12.80;;
26407;SDS011;14583;43.604;1.364;2022-12-04T14:27:41;15.98;;;11.82;;
26407;SDS011;14583;43.604;1.364;2022-12-04T14:33:04;15.65;;;10.95;;
26407;SDS011;14583;43.604;1.364;2022-12-04T14:35:32;15.40;;;10.75;;
26407;SDS011;14583;43.604;1.364;2022-12-04T14:37:59;17.38;;;10.93;;
26407;SDS011;14583;43.604;1.364;2022-12-04T14:40:28;13.45;;;9.60;;
26407;SDS011;14583;43.604;1.364;2022-12-04T14:43:11;11.75;;;9.43;;
26407;SDS011;14583;43.604;1.364;2022-12-04T14:45:44;12.35;;;8.95;;
26407;SDS011;14583;43.604;1.364;2022-12-04T14:48:17;13.57;;;10.05;;
26407;SDS011;14583;43.604;1.364;2022-12-04T14:51:13;12.10;;;9.85;;
26407;SDS011;14583;43.604;1.364;2022-12-04T14:59:22;9.25;;;8.02;;
26407;SDS011;14583;43.604;1.364;2022-12-04T15:02:08;9.80;;;8.75;;
26407;SDS011;14583;43.604;1.364;2022-12-04T15:04:37;9.68;;;8.68;;
26407;SDS011;14583;43.604;1.364;2022-12-04T15:07:10;9.48;;;8.25;;
26407;SDS011;14583;43.604;1.364;2022-12-04T15:09:53;10.25;;;8.70;;
26407;SDS011;14583;43.604;1.364;2022-12-04T15:15:22;17.92;;;8.45;;
26407;SDS011;14583;43.604;1.364;2022-12-04T15:20:33;10.13;;;8.15;;
26407;SDS011;14583;43.604;1.364;2022-12-04T15:23:14;14.43;;;9.50;;
26407;SDS011;14583;43.604;1.364;2022-12-04T15:25:47;11.88;;;9.38;;
26407;SDS011;14583;43.604;1.364;2022-12-04T15:31:09;13.10;;;10.15;;
26407;SDS011;14583;43.604;1.364;2022-12-04T15:33:39;14.27;;;10.57;;
26407;SDS011;14583;43.604;1.364;2022-12-04T15:36:16;13.27;;;10.80;;
26407;SDS011;14583;43.604;1.364;2022-12-04T15:38:43;17.13;;;11.13;;
26407;SDS011;14583;43.604;1.364;2022-12-04T15:41:25;16.83;;;12.32;;
26407;SDS011;14583;43.604;1.364;2022-12-04T15:44:02;15.35;;;12.75;;
26407;SDS011;14583;43.604;1.364;2022-12-04T15:46:56;15.38;;;12.35;;
26407;SDS011;14583;43.604;1.364;2022-12-04T15:49:25;17.95;;;12.85;;
26407;SDS011;14583;43.604;1.364;2022-12-04T15:52:02;18.02;;;13.63;;
26407;SDS011;14583;43.604;1.364;2022-12-04T15:54:40;20.73;;;14.10;;
26407;SDS011;14583;43.604;1.364;2022-12-04T15:57:17;16.08;;;13.23;;
26407;SDS011;14583;43.604;1.364;2022-12-04T15:59:54;18.98;;;12.63;;
26407;SDS011;14583;43.604;1.364;2022-12-04T16:02:31;17.17;;;12.88;;
26407;SDS011;14583;43.604;1.364;2022-12-04T16:07:49;17.42;;;13.18;;
26407;SDS011;14583;43.604;1.364;2022-12-04T16:10:23;19.63;;;13.75;;
26407;SDS011;14583;43.604;1.364;2022-12-04T16:12:58;18.42;;;13.27;;
26407;SDS011;14583;43.604;1.364;2022-12-04T16:15:46;20.98;;;15.18;;
26407;SDS011;14583;43.604;1.364;2022-12-04T16:18:12;21.55;;;15.77;;
26407;SDS011;14583;43.604;1.364;2022-12-04T16:20:38;20.88;;;14.77;;
26407;SDS011;14583;43.604;1.364;2022-12-04T16:23:04;29.73;;;18.65;;
26407;SDS011;14583;43.604;1.364;2022-12-04T16:25:31;23.55;;;16.10;;
26407;SDS011;14583;43.604;1.364;2022-12-04T16:27:57;22.98;;;16.10;;
26407;SDS011;14583;43.604;1.364;2022-12-04T16:30:23;23.08;;;16.77;;
26407;SDS011;14583;43.604;1.364;2022-12-04T16:32:51;25.45;;;17.65;;
26407;SDS011;14583;43.604;1.364;2022-12-04T16:35:17;25.85;;;17.58;;
26407;SDS011;14583;43.604;1.364;2022-12-04T16:37:44;24.83;;;18.70;;
26407;SDS011;14583;43.604;1.364;2022-12-04T16:40:10;24.20;;;18.27;;
26407;SDS011;14583;43.604;1.364;2022-12-04T16:42:37;27.67;;;19.52;;
26407;SDS011;14583;43.604;1.364;2022-12-04T16:45:27;27.58;;;18.92;;
26407;SDS011;14583;43.604;1.364;2022-12-04T16:47:52;26.00;;;18.95;;
26407;SDS011;14583;43.604;1.364;2022-12-04T16:50:18;26.27;;;18.52;;
26407;SDS011;14583;43.604;1.364;2022-12-04T16:52:44;27.08;;;19.00;;
26407;SDS011;14583;43.604;1.364;2022-12-04T16:55:20;29.73;;;19.05;;
26407;SDS011;14583;43.604;1.364;2022-12-04T16:57:50;26.88;;;18.63;;
26407;SDS011;14583;43.604;1.364;2022-12-04T17:00:16;28.52;;;19.02;;
26407;SDS011;14583;43.604;1.364;2022-12-04T17:02:42;27.60;;;19.13;;
26407;SDS011;14583;43.604;1.364;2022-12-04T17:05:16;30.90;;;19.67;;
26407;SDS011;14583;43.604;1.364;2022-12-04T17:07:46;31.88;;;20.35;;
26407;SDS011;14583;43.604;1.364;2022-12-04T17:10:13;26.63;;;19.00;;
26407;SDS011;14583;43.604;1.364;2022-12-04T17:12:39;31.10;;;20.65;;